KSOP/SOP METAR and TAF weather

Enter ICAO airport designator
Station Type Date Time Source
KSOP METAR 2020/05/30 03:56 UTC NOAA

KSOP 300356Z AUTO 22005KT 10SM BKN006 21/21 A3005 RMK AO2 SLP176 T02110206 PNO $


Station Type Date Time Source
KSOP Decoded METAR 2020/05/30 03:56 UTC NOAA

Pinehurst/Southern Pines, Moore County Airport, NC, United States (KSOP) 35-14N 079-24W
May 29, 2020 - 11:56 PM EDT / 2020.05.30 0356 UTC
Wind: from the SW (220 degrees) at 6 MPH (5 KT):0
Visibility: 10 mile(s):0
Sky conditions: mostly cloudy
Temperature: 70.0 F (21.1 C)
Dew Point: 69.1 F (20.6 C)
Relative Humidity: 96%
Pressure (altimeter): 30.05 in. Hg (1017 hPa)
ob: KSOP 300356Z AUTO 22005KT 10SM BKN006 21/21 A3005 RMK AO2 SLP176 T02110206 PNO
cycle: 4

Station Type Date Time Source
KSOP TAF UTC NOAA

Error!

Example: see airport list